sensor_id;sensor_type;location;lat;lon;timestamp;temperature;humidity
14210;DHT22;7188;56.070;12.698;2023-03-05T00:00:36;0.50;1.00
14210;DHT22;7188;56.070;12.698;2023-03-05T00:03:01;0.60;1.00
14210;DHT22;7188;56.070;12.698;2023-03-05T00:05:27;0.60;1.00
14210;DHT22;7188;56.070;12.698;2023-03-05T00:07:53;0.60;1.00
14210;DHT22;7188;56.070;12.698;2023-03-05T00:10:18;0.60;1.00
14210;DHT22;7188;56.070;12.698;2023-03-05T00:12:44;0.60;1.00
14210;DHT22;7188;56.070;12.698;2023-03-05T00:15:10;0.70;1.00
14210;DHT22;7188;56.070;12.698;2023-03-05T00:17:36;0.80;1.00
14210;DHT22;7188;56.070;12.698;2023-03-05T00:20:02;0.80;1.00
14210;DHT22;7188;56.070;12.698;2023-03-05T00:22:27;0.80;1.00
14210;DHT22;7188;56.070;12.698;2023-03-05T00:24:53;0.80;1.00
14210;DHT22;7188;56.070;12.698;2023-03-05T00:27:19;0.90;1.00
14210;DHT22;7188;56.070;12.698;2023-03-05T00:29:44;0.90;1.00
14210;DHT22;7188;56.070;12.698;2023-03-05T00:32:10;1.00;1.00
14210;DHT22;7188;56.070;12.698;2023-03-05T00:34:36;1.00;1.00
14210;DHT22;7188;56.070;12.698;2023-03-05T00:37:01;1.10;1.00
14210;DHT22;7188;56.070;12.698;2023-03-05T00:39:27;1.10;1.00
14210;DHT22;7188;56.070;12.698;2023-03-05T00:41:53;1.10;1.00
14210;DHT22;7188;56.070;12.698;2023-03-05T00:44:19;1.10;1.00
14210;DHT22;7188;56.070;12.698;2023-03-05T00:46:48;1.20;1.00
14210;DHT22;7188;56.070;12.698;2023-03-05T00:49:13;1.20;1.00
14210;DHT22;7188;56.070;12.698;2023-03-05T00:51:39;1.20;1.00
14210;DHT22;7188;56.070;12.698;2023-03-05T00:54:05;1.30;1.00
14210;DHT22;7188;56.070;12.698;2023-03-05T00:56:32;1.30;1.00
14210;DHT22;7188;56.070;12.698;2023-03-05T00:58:58;1.40;1.00
14210;DHT22;7188;56.070;12.698;2023-03-05T01:01:24;1.40;1.00
14210;DHT22;7188;56.070;12.698;2023-03-05T01:03:50;1.40;1.00
14210;DHT22;7188;56.070;12.698;2023-03-05T01:06:15;1.50;1.00
14210;DHT22;7188;56.070;12.698;2023-03-05T01:08:43;1.50;1.00
14210;DHT22;7188;56.070;12.698;2023-03-05T01:11:11;1.50;1.00
14210;DHT22;7188;56.070;12.698;2023-03-05T01:13:37;1.60;1.00
14210;DHT22;7188;56.070;12.698;2023-03-05T01:16:03;1.60;1.00
14210;DHT22;7188;56.070;12.698;2023-03-05T01:18:29;1.60;1.00
14210;DHT22;7188;56.070;12.698;2023-03-05T01:20:55;1.50;1.00
14210;DHT22;7188;56.070;12.698;2023-03-05T01:23:21;1.20;99.90
14210;DHT22;7188;56.070;12.698;2023-03-05T01:25:53;0.90;99.90
14210;DHT22;7188;56.070;12.698;2023-03-05T01:28:19;0.60;1.00
14210;DHT22;7188;56.070;12.698;2023-03-05T01:30:45;0.40;99.90
14210;DHT22;7188;56.070;12.698;2023-03-05T01:33:11;0.30;1.00
14210;DHT22;7188;56.070;12.698;2023-03-05T01:35:36;0.30;1.00
14210;DHT22;7188;56.070;12.698;2023-03-05T01:38:02;0.30;1.00
14210;DHT22;7188;56.070;12.698;2023-03-05T01:40:30;0.20;1.00
14210;DHT22;7188;56.070;12.698;2023-03-05T01:43:07;0.20;1.00
14210;DHT22;7188;56.070;12.698;2023-03-05T01:48:46;0.00;1.00
14210;DHT22;7188;56.070;12.698;2023-03-05T01:51:15;-0.10;99.90
14210;DHT22;7188;56.070;12.698;2023-03-05T01:53:41;-0.20;99.90
14210;DHT22;7188;56.070;12.698;2023-03-05T01:56:08;-0.20;1.00
14210;DHT22;7188;56.070;12.698;2023-03-05T01:58:34;-0.20;1.00
14210;DHT22;7188;56.070;12.698;2023-03-05T02:01:01;-0.20;1.00
14210;DHT22;7188;56.070;12.698;2023-03-05T02:03:26;-0.30;1.00
14210;DHT22;7188;56.070;12.698;2023-03-05T02:05:52;-0.20;1.00
14210;DHT22;7188;56.070;12.698;2023-03-05T02:08:20;-0.20;1.00
14210;DHT22;7188;56.070;12.698;2023-03-05T02:10:54;-0.10;1.00
14210;DHT22;7188;56.070;12.698;2023-03-05T02:13:33;0.20;99.90
14210;DHT22;7188;56.070;12.698;2023-03-05T02:16:00;0.50;1.00
14210;DHT22;7188;56.070;12.698;2023-03-05T02:18:26;0.50;1.00
14210;DHT22;7188;56.070;12.698;2023-03-05T02:21:00;0.60;1.00
14210;DHT22;7188;56.070;12.698;2023-03-05T02:23:29;0.50;1.00
14210;DHT22;7188;56.070;12.698;2023-03-05T02:26:15;0.20;99.90
14210;DHT22;7188;56.070;12.698;2023-03-05T02:28:53;0.00;99.90
14210;DHT22;7188;56.070;12.698;2023-03-05T02:31:22;-0.20;99.90
14210;DHT22;7188;56.070;12.698;2023-03-05T02:33:49;-0.30;99.90
14210;DHT22;7188;56.070;12.698;2023-03-05T02:36:16;-0.40;99.90
14210;DHT22;7188;56.070;12.698;2023-03-05T02:38:42;-0.40;99.90
14210;DHT22;7188;56.070;12.698;2023-03-05T02:41:08;-0.30;99.90
14210;DHT22;7188;56.070;12.698;2023-03-05T02:43:34;-0.30;99.90
14210;DHT22;7188;56.070;12.698;2023-03-05T02:46:00;-0.40;99.90
14210;DHT22;7188;56.070;12.698;2023-03-05T02:48:25;-0.20;1.00
14210;DHT22;7188;56.070;12.698;2023-03-05T02:50:52;0.20;1.00
14210;DHT22;7188;56.070;12.698;2023-03-05T02:53:18;0.10;1.00
14210;DHT22;7188;56.070;12.698;2023-03-05T02:55:47;0.00;1.00
14210;DHT22;7188;56.070;12.698;2023-03-05T02:58:13;0.00;1.00
14210;DHT22;7188;56.070;12.698;2023-03-05T03:00:38;0.10;1.00
14210;DHT22;7188;56.070;12.698;2023-03-05T03:03:04;0.30;1.00
14210;DHT22;7188;56.070;12.698;2023-03-05T03:05:30;0.20;1.00
14210;DHT22;7188;56.070;12.698;2023-03-05T03:07:55;0.20;99.90
14210;DHT22;7188;56.070;12.698;2023-03-05T03:10:21;0.20;99.90
14210;DHT22;7188;56.070;12.698;2023-03-05T03:12:47;0.40;1.00
14210;DHT22;7188;56.070;12.698;2023-03-05T03:15:15;0.40;1.00
14210;DHT22;7188;56.070;12.698;2023-03-05T03:17:42;0.40;99.90
14210;DHT22;7188;56.070;12.698;2023-03-05T03:20:12;0.50;99.90
14210;DHT22;7188;56.070;12.698;2023-03-05T03:22:39;0.70;99.90
14210;DHT22;7188;56.070;12.698;2023-03-05T03:25:05;0.50;99.90
14210;DHT22;7188;56.070;12.698;2023-03-05T03:27:31;0.50;99.90
14210;DHT22;7188;56.070;12.698;2023-03-05T03:29:57;0.50;99.90
14210;DHT22;7188;56.070;12.698;2023-03-05T03:32:27;0.50;99.90
14210;DHT22;7188;56.070;12.698;2023-03-05T03:34:54;0.50;99.90
14210;DHT22;7188;56.070;12.698;2023-03-05T03:37:19;0.30;99.90
14210;DHT22;7188;56.070;12.698;2023-03-05T03:39:45;0.30;99.90
14210;DHT22;7188;56.070;12.698;2023-03-05T03:42:11;0.20;99.90
14210;DHT22;7188;56.070;12.698;2023-03-05T03:44:36;0.20;99.90
14210;DHT22;7188;56.070;12.698;2023-03-05T03:47:02;0.10;1.00
14210;DHT22;7188;56.070;12.698;2023-03-05T03:49:28;-0.10;99.90
14210;DHT22;7188;56.070;12.698;2023-03-05T03:51:53;-0.20;1.00
14210;DHT22;7188;56.070;12.698;2023-03-05T03:54:21;-0.30;1.00
14210;DHT22;7188;56.070;12.698;2023-03-05T03:56:50;-0.40;99.90
14210;DHT22;7188;56.070;12.698;2023-03-05T03:59:15;-0.50;99.90
14210;DHT22;7188;56.070;12.698;2023-03-05T04:01:41;-0.50;99.90
14210;DHT22;7188;56.070;12.698;2023-03-05T04:04:08;-0.50;99.90
14210;DHT22;7188;56.070;12.698;2023-03-05T04:06:34;-0.60;99.90
14210;DHT22;7188;56.070;12.698;2023-03-05T04:09:00;-0.60;99.90
14210;DHT22;7188;56.070;12.698;2023-03-05T04:11:25;-0.60;99.90
14210;DHT22;7188;56.070;12.698;2023-03-05T04:13:51;-0.70;99.90
14210;DHT22;7188;56.070;12.698;2023-03-05T04:16:17;-0.80;99.90
14210;DHT22;7188;56.070;12.698;2023-03-05T04:18:44;-0.80;97.80
14210;DHT22;7188;56.070;12.698;2023-03-05T04:21:10;-0.80;97.40
14210;DHT22;7188;56.070;12.698;2023-03-05T04:23:38;-0.90;92.90
14210;DHT22;7188;56.070;12.698;2023-03-05T04:26:04;-0.90;90.40
14210;DHT22;7188;56.070;12.698;2023-03-05T04:28:31;-0.90;99.90
14210;DHT22;7188;56.070;12.698;2023-03-05T04:30:56;-1.00;99.90
14210;DHT22;7188;56.070;12.698;2023-03-05T04:33:22;-0.80;99.90
14210;DHT22;7188;56.070;12.698;2023-03-05T04:35:49;-0.70;99.90
14210;DHT22;7188;56.070;12.698;2023-03-05T04:38:14;-0.50;99.90
14210;DHT22;7188;56.070;12.698;2023-03-05T04:40:40;-0.50;99.90
14210;DHT22;7188;56.070;12.698;2023-03-05T04:43:06;-0.60;99.90
14210;DHT22;7188;56.070;12.698;2023-03-05T04:45:32;-0.80;99.90
14210;DHT22;7188;56.070;12.698;2023-03-05T04:47:58;-1.00;99.90
14210;DHT22;7188;56.070;12.698;2023-03-05T04:50:24;-1.10;99.90
14210;DHT22;7188;56.070;12.698;2023-03-05T04:52:50;-1.30;99.90
14210;DHT22;7188;56.070;12.698;2023-03-05T04:55:17;-1.30;99.90
14210;DHT22;7188;56.070;12.698;2023-03-05T04:57:43;-0.90;1.00
14210;DHT22;7188;56.070;12.698;2023-03-05T05:00:13;-0.70;1.00
14210;DHT22;7188;56.070;12.698;2023-03-05T05:02:40;-0.50;90.50
14210;DHT22;7188;56.070;12.698;2023-03-05T05:05:07;-0.50;47.60
14210;DHT22;7188;56.070;12.698;2023-03-05T05:07:34;-0.70;39.80
14210;DHT22;7188;56.070;12.698;2023-03-05T05:09:59;-1.00;1.00
14210;DHT22;7188;56.070;12.698;2023-03-05T05:12:28;-1.30;1.00
14210;DHT22;7188;56.070;12.698;2023-03-05T05:14:55;-1.60;1.00
14210;DHT22;7188;56.070;12.698;2023-03-05T05:17:20;-1.80;1.00
14210;DHT22;7188;56.070;12.698;2023-03-05T05:19:46;-1.90;1.00
14210;DHT22;7188;56.070;12.698;2023-03-05T05:22:11;-2.00;1.00
14210;DHT22;7188;56.070;12.698;2023-03-05T05:24:37;-2.20;1.00
14210;DHT22;7188;56.070;12.698;2023-03-05T05:27:03;-2.20;1.00
14210;DHT22;7188;56.070;12.698;2023-03-05T05:29:28;-2.00;99.90
14210;DHT22;7188;56.070;12.698;2023-03-05T05:31:54;-2.20;99.90
14210;DHT22;7188;56.070;12.698;2023-03-05T05:34:21;-2.40;88.50
14210;DHT22;7188;56.070;12.698;2023-03-05T05:36:46;-2.50;84.10
14210;DHT22;7188;56.070;12.698;2023-03-05T05:39:12;-2.60;48.60
14210;DHT22;7188;56.070;12.698;2023-03-05T05:41:38;-2.60;99.90
14210;DHT22;7188;56.070;12.698;2023-03-05T05:44:03;-2.50;99.90
14210;DHT22;7188;56.070;12.698;2023-03-05T05:46:29;-2.20;1.00
14210;DHT22;7188;56.070;12.698;2023-03-05T05:48:54;-2.40;99.90
14210;DHT22;7188;56.070;12.698;2023-03-05T05:51:21;-2.50;99.90
14210;DHT22;7188;56.070;12.698;2023-03-05T05:53:48;-2.50;1.00
14210;DHT22;7188;56.070;12.698;2023-03-05T05:56:14;-2.50;1.00
14210;DHT22;7188;56.070;12.698;2023-03-05T05:58:41;-2.40;1.00
14210;DHT22;7188;56.070;12.698;2023-03-05T06:01:16;-2.50;1.00
14210;DHT22;7188;56.070;12.698;2023-03-05T06:03:41;-2.50;99.90
14210;DHT22;7188;56.070;12.698;2023-03-05T06:06:10;-2.40;1.00
14210;DHT22;7188;56.070;12.698;2023-03-05T06:08:36;-2.30;99.90
14210;DHT22;7188;56.070;12.698;2023-03-05T06:11:02;-2.20;26.20
14210;DHT22;7188;56.070;12.698;2023-03-05T06:13:28;-1.90;1.00
14210;DHT22;7188;56.070;12.698;2023-03-05T06:15:59;-1.70;1.00
14210;DHT22;7188;56.070;12.698;2023-03-05T06:18:26;-1.70;1.00
14210;DHT22;7188;56.070;12.698;2023-03-05T06:21:00;-1.50;1.00
14210;DHT22;7188;56.070;12.698;2023-03-05T06:23:28;-1.40;1.00
14210;DHT22;7188;56.070;12.698;2023-03-05T06:25:53;-1.30;1.00
14210;DHT22;7188;56.070;12.698;2023-03-05T06:28:20;-1.10;1.00
14210;DHT22;7188;56.070;12.698;2023-03-05T06:30:46;-1.00;1.00
14210;DHT22;7188;56.070;12.698;2023-03-05T06:33:11;-0.90;1.00
14210;DHT22;7188;56.070;12.698;2023-03-05T06:35:43;-0.80;1.00
14210;DHT22;7188;56.070;12.698;2023-03-05T06:38:10;-0.80;7.80
14210;DHT22;7188;56.070;12.698;2023-03-05T06:40:38;-0.60;81.30
14210;DHT22;7188;56.070;12.698;2023-03-05T06:43:04;-0.50;99.90
14210;DHT22;7188;56.070;12.698;2023-03-05T06:45:29;-0.40;99.90
14210;DHT22;7188;56.070;12.698;2023-03-05T06:47:55;-0.30;99.90
14210;DHT22;7188;56.070;12.698;2023-03-05T06:50:21;-0.20;99.90
14210;DHT22;7188;56.070;12.698;2023-03-05T06:52:48;-0.10;99.90
14210;DHT22;7188;56.070;12.698;2023-03-05T06:55:14;-0.10;99.90
14210;DHT22;7188;56.070;12.698;2023-03-05T06:57:40;0.00;99.90
14210;DHT22;7188;56.070;12.698;2023-03-05T07:00:08;0.10;99.90
14210;DHT22;7188;56.070;12.698;2023-03-05T07:02:36;0.10;99.90
14210;DHT22;7188;56.070;12.698;2023-03-05T07:05:03;0.20;91.50
14210;DHT22;7188;56.070;12.698;2023-03-05T07:07:28;0.30;65.20
14210;DHT22;7188;56.070;12.698;2023-03-05T07:09:54;0.30;39.30
14210;DHT22;7188;56.070;12.698;2023-03-05T07:12:20;0.40;26.00
14210;DHT22;7188;56.070;12.698;2023-03-05T07:14:45;0.50;15.70
14210;DHT22;7188;56.070;12.698;2023-03-05T07:17:11;0.50;1.10
14210;DHT22;7188;56.070;12.698;2023-03-05T07:20:01;0.60;1.00
14210;DHT22;7188;56.070;12.698;2023-03-05T07:22:27;0.70;1.00
14210;DHT22;7188;56.070;12.698;2023-03-05T07:24:53;0.70;1.00
14210;DHT22;7188;56.070;12.698;2023-03-05T07:27:18;0.80;1.00
14210;DHT22;7188;56.070;12.698;2023-03-05T07:29:44;0.90;1.00
14210;DHT22;7188;56.070;12.698;2023-03-05T07:32:10;0.90;1.00
14210;DHT22;7188;56.070;12.698;2023-03-05T07:34:36;1.00;1.00
14210;DHT22;7188;56.070;12.698;2023-03-05T07:37:02;1.00;1.00
14210;DHT22;7188;56.070;12.698;2023-03-05T07:39:28;1.10;1.00
14210;DHT22;7188;56.070;12.698;2023-03-05T07:41:54;1.20;1.00
14210;DHT22;7188;56.070;12.698;2023-03-05T07:44:19;1.20;1.00
14210;DHT22;7188;56.070;12.698;2023-03-05T07:46:45;1.30;1.00
14210;DHT22;7188;56.070;12.698;2023-03-05T07:49:11;1.40;1.00
14210;DHT22;7188;56.070;12.698;2023-03-05T07:51:36;1.50;1.00
14210;DHT22;7188;56.070;12.698;2023-03-05T07:54:02;1.50;1.00
14210;DHT22;7188;56.070;12.698;2023-03-05T07:56:31;1.60;1.00
14210;DHT22;7188;56.070;12.698;2023-03-05T07:59:02;1.70;1.00
14210;DHT22;7188;56.070;12.698;2023-03-05T08:01:29;1.80;1.00
14210;DHT22;7188;56.070;12.698;2023-03-05T08:03:56;1.90;1.00
14210;DHT22;7188;56.070;12.698;2023-03-05T08:06:21;1.90;1.00
14210;DHT22;7188;56.070;12.698;2023-03-05T08:08:47;1.90;1.00
14210;DHT22;7188;56.070;12.698;2023-03-05T08:11:14;1.90;1.00
14210;DHT22;7188;56.070;12.698;2023-03-05T08:13:41;1.80;1.00
14210;DHT22;7188;56.070;12.698;2023-03-05T08:16:15;1.70;1.00
14210;DHT22;7188;56.070;12.698;2023-03-05T08:18:41;1.70;1.00
14210;DHT22;7188;56.070;12.698;2023-03-05T08:21:19;1.70;1.00
14210;DHT22;7188;56.070;12.698;2023-03-05T08:23:45;1.60;1.00
14210;DHT22;7188;56.070;12.698;2023-03-05T08:26:13;1.70;1.00
14210;DHT22;7188;56.070;12.698;2023-03-05T08:28:40;1.70;1.00
14210;DHT22;7188;56.070;12.698;2023-03-05T08:31:12;1.70;1.00
14210;DHT22;7188;56.070;12.698;2023-03-05T08:33:39;1.80;1.00
14210;DHT22;7188;56.070;12.698;2023-03-05T08:36:05;1.80;1.00
14210;DHT22;7188;56.070;12.698;2023-03-05T08:38:45;1.90;1.00
14210;DHT22;7188;56.070;12.698;2023-03-05T08:41:13;1.90;1.00
14210;DHT22;7188;56.070;12.698;2023-03-05T08:43:39;1.80;1.00
14210;DHT22;7188;56.070;12.698;2023-03-05T08:46:05;1.80;1.00
14210;DHT22;7188;56.070;12.698;2023-03-05T08:48:31;1.90;1.00
14210;DHT22;7188;56.070;12.698;2023-03-05T08:51:07;1.90;1.00
14210;DHT22;7188;56.070;12.698;2023-03-05T08:53:33;2.00;1.00
14210;DHT22;7188;56.070;12.698;2023-03-05T08:55:59;2.00;1.00
14210;DHT22;7188;56.070;12.698;2023-03-05T08:58:25;1.80;1.00
14210;DHT22;7188;56.070;12.698;2023-03-05T09:00:51;1.80;1.00
14210;DHT22;7188;56.070;12.698;2023-03-05T09:03:17;1.80;1.00
14210;DHT22;7188;56.070;12.698;2023-03-05T09:05:43;1.70;1.00
14210;DHT22;7188;56.070;12.698;2023-03-05T09:08:09;1.70;1.00
14210;DHT22;7188;56.070;12.698;2023-03-05T09:10:35;1.80;1.00
14210;DHT22;7188;56.070;12.698;2023-03-05T09:13:00;1.80;1.00
14210;DHT22;7188;56.070;12.698;2023-03-05T09:15:28;1.80;1.00
14210;DHT22;7188;56.070;12.698;2023-03-05T09:17:54;1.80;1.00
14210;DHT22;7188;56.070;12.698;2023-03-05T09:20:21;1.80;1.00
14210;DHT22;7188;56.070;12.698;2023-03-05T09:22:46;1.80;1.00
14210;DHT22;7188;56.070;12.698;2023-03-05T09:25:12;1.90;1.00
14210;DHT22;7188;56.070;12.698;2023-03-05T09:27:38;1.90;1.00
14210;DHT22;7188;56.070;12.698;2023-03-05T09:30:04;1.90;1.00
14210;DHT22;7188;56.070;12.698;2023-03-05T09:32:31;2.10;1.00
14210;DHT22;7188;56.070;12.698;2023-03-05T09:34:57;2.20;1.00
14210;DHT22;7188;56.070;12.698;2023-03-05T09:37:23;2.30;1.00
14210;DHT22;7188;56.070;12.698;2023-03-05T09:39:49;2.40;1.00
14210;DHT22;7188;56.070;12.698;2023-03-05T09:48:23;2.40;1.00
14210;DHT22;7188;56.070;12.698;2023-03-05T09:51:00;2.50;1.00
14210;DHT22;7188;56.070;12.698;2023-03-05T09:55:58;2.50;1.00
14210;DHT22;7188;56.070;12.698;2023-03-05T09:58:38;2.40;1.00
14210;DHT22;7188;56.070;12.698;2023-03-05T10:01:18;2.40;1.00
14210;DHT22;7188;56.070;12.698;2023-03-05T10:03:54;2.40;1.00
14210;DHT22;7188;56.070;12.698;2023-03-05T10:09:40;2.80;1.00
14210;DHT22;7188;56.070;12.698;2023-03-05T10:14:49;2.80;1.00
14210;DHT22;7188;56.070;12.698;2023-03-05T10:22:32;2.50;1.00
14210;DHT22;7188;56.070;12.698;2023-03-05T10:27:47;2.60;1.00
14210;DHT22;7188;56.070;12.698;2023-03-05T10:30:29;2.60;1.00
14210;DHT22;7188;56.070;12.698;2023-03-05T10:33:19;2.70;1.00
14210;DHT22;7188;56.070;12.698;2023-03-05T10:44:32;2.70;1.00
14210;DHT22;7188;56.070;12.698;2023-03-05T10:47:00;2.70;1.00
14210;DHT22;7188;56.070;12.698;2023-03-05T10:49:35;2.70;1.00
14210;DHT22;7188;56.070;12.698;2023-03-05T10:52:37;2.70;1.00
14210;DHT22;7188;56.070;12.698;2023-03-05T10:55:17;2.60;1.00
14210;DHT22;7188;56.070;12.698;2023-03-05T10:57:43;2.60;1.00
14210;DHT22;7188;56.070;12.698;2023-03-05T11:00:29;2.50;1.00
14210;DHT22;7188;56.070;12.698;2023-03-05T11:03:08;2.60;1.00
14210;DHT22;7188;56.070;12.698;2023-03-05T11:05:47;2.60;1.00
14210;DHT22;7188;56.070;12.698;2023-03-05T11:08:28;2.60;1.00
14210;DHT22;7188;56.070;12.698;2023-03-05T11:13:37;2.60;1.00
14210;DHT22;7188;56.070;12.698;2023-03-05T11:16:10;2.60;1.00
14210;DHT22;7188;56.070;12.698;2023-03-05T11:18:40;2.50;1.00
14210;DHT22;7188;56.070;12.698;2023-03-05T11:23:37;2.40;1.00
14210;DHT22;7188;56.070;12.698;2023-03-05T11:26:04;2.60;1.00
14210;DHT22;7188;56.070;12.698;2023-03-05T11:28:34;2.70;1.00
14210;DHT22;7188;56.070;12.698;2023-03-05T11:34:05;2.80;1.00
14210;DHT22;7188;56.070;12.698;2023-03-05T11:36:37;2.80;1.00
14210;DHT22;7188;56.070;12.698;2023-03-05T11:44:00;3.00;1.00
14210;DHT22;7188;56.070;12.698;2023-03-05T11:46:30;2.90;1.00
14210;DHT22;7188;56.070;12.698;2023-03-05T11:49:01;3.00;1.00
14210;DHT22;7188;56.070;12.698;2023-03-05T11:51:38;2.90;1.00
14210;DHT22;7188;56.070;12.698;2023-03-05T11:54:10;2.80;1.00
14210;DHT22;7188;56.070;12.698;2023-03-05T11:56:41;2.70;1.00
14210;DHT22;7188;56.070;12.698;2023-03-05T11:59:26;2.80;1.00
14210;DHT22;7188;56.070;12.698;2023-03-05T12:01:54;2.80;1.00
14210;DHT22;7188;56.070;12.698;2023-03-05T12:04:23;2.90;1.00
14210;DHT22;7188;56.070;12.698;2023-03-05T12:07:00;2.90;1.00
14210;DHT22;7188;56.070;12.698;2023-03-05T12:09:46;3.00;1.00
14210;DHT22;7188;56.070;12.698;2023-03-05T12:23:59;2.80;1.00
14210;DHT22;7188;56.070;12.698;2023-03-05T12:26:53;2.70;1.00
14210;DHT22;7188;56.070;12.698;2023-03-05T12:40:41;2.90;1.00
14210;DHT22;7188;56.070;12.698;2023-03-05T12:43:03;2.90;1.00
14210;DHT22;7188;56.070;12.698;2023-03-05T12:45:35;2.80;1.00
14210;DHT22;7188;56.070;12.698;2023-03-05T12:53:18;2.80;1.00
14210;DHT22;7188;56.070;12.698;2023-03-05T13:04:00;2.90;1.00
14210;DHT22;7188;56.070;12.698;2023-03-05T13:06:33;3.00;1.00
14210;DHT22;7188;56.070;12.698;2023-03-05T13:09:16;2.90;1.00
14210;DHT22;7188;56.070;12.698;2023-03-05T13:11:49;2.80;1.00
14210;DHT22;7188;56.070;12.698;2023-03-05T13:14:40;2.80;1.00
14210;DHT22;7188;56.070;12.698;2023-03-05T13:17:33;2.80;1.00
14210;DHT22;7188;56.070;12.698;2023-03-05T13:20:00;2.90;1.00
14210;DHT22;7188;56.070;12.698;2023-03-05T13:22:27;2.90;1.00
14210;DHT22;7188;56.070;12.698;2023-03-05T13:25:13;3.00;1.00
14210;DHT22;7188;56.070;12.698;2023-03-05T13:27:39;3.00;1.00
14210;DHT22;7188;56.070;12.698;2023-03-05T13:30:05;3.00;1.00
14210;DHT22;7188;56.070;12.698;2023-03-05T13:32:32;2.90;1.00
14210;DHT22;7188;56.070;12.698;2023-03-05T13:34:59;2.80;1.00
14210;DHT22;7188;56.070;12.698;2023-03-05T13:37:29;2.70;1.00
14210;DHT22;7188;56.070;12.698;2023-03-05T13:40:01;2.70;1.00
14210;DHT22;7188;56.070;12.698;2023-03-05T13:42:33;2.60;1.00
14210;DHT22;7188;56.070;12.698;2023-03-05T13:45:04;2.60;1.00
14210;DHT22;7188;56.070;12.698;2023-03-05T13:47:32;2.60;1.00
14210;DHT22;7188;56.070;12.698;2023-03-05T13:50:07;2.60;1.00
14210;DHT22;7188;56.070;12.698;2023-03-05T13:52:35;2.50;1.00
14210;DHT22;7188;56.070;12.698;2023-03-05T13:55:03;2.50;1.00
14210;DHT22;7188;56.070;12.698;2023-03-05T14:00:00;2.70;1.00
14210;DHT22;7188;56.070;12.698;2023-03-05T14:02:26;2.50;1.00
14210;DHT22;7188;56.070;12.698;2023-03-05T14:04:53;2.40;1.00
14210;DHT22;7188;56.070;12.698;2023-03-05T14:09:48;2.50;1.00
14210;DHT22;7188;56.070;12.698;2023-03-05T14:14:59;2.50;1.00
14210;DHT22;7188;56.070;12.698;2023-03-05T14:20:17;2.60;1.00
14210;DHT22;7188;56.070;12.698;2023-03-05T14:22:47;2.60;1.00
14210;DHT22;7188;56.070;12.698;2023-03-05T14:25:42;2.50;1.00
14210;DHT22;7188;56.070;12.698;2023-03-05T14:30:46;2.60;1.00
14210;DHT22;7188;56.070;12.698;2023-03-05T14:33:13;2.60;1.00
14210;DHT22;7188;56.070;12.698;2023-03-05T14:35:47;2.70;1.00
14210;DHT22;7188;56.070;12.698;2023-03-05T14:38:20;2.60;1.00
14210;DHT22;7188;56.070;12.698;2023-03-05T14:40:48;2.50;1.00
14210;DHT22;7188;56.070;12.698;2023-03-05T14:43:13;2.40;1.00
14210;DHT22;7188;56.070;12.698;2023-03-05T14:45:41;2.40;1.00
14210;DHT22;7188;56.070;12.698;2023-03-05T14:48:10;2.30;1.00
14210;DHT22;7188;56.070;12.698;2023-03-05T14:50:47;2.30;1.00
14210;DHT22;7188;56.070;12.698;2023-03-05T14:53:26;2.40;1.00
14210;DHT22;7188;56.070;12.698;2023-03-05T14:55:54;2.40;1.00
14210;DHT22;7188;56.070;12.698;2023-03-05T14:58:29;2.40;1.00
14210;DHT22;7188;56.070;12.698;2023-03-05T15:00:57;2.40;1.00
14210;DHT22;7188;56.070;12.698;2023-03-05T15:03:24;2.30;1.00
14210;DHT22;7188;56.070;12.698;2023-03-05T15:05:52;2.30;1.00
14210;DHT22;7188;56.070;12.698;2023-03-05T15:08:25;2.20;1.00
14210;DHT22;7188;56.070;12.698;2023-03-05T15:10:52;2.20;1.00
14210;DHT22;7188;56.070;12.698;2023-03-05T15:13:18;2.20;1.00
14210;DHT22;7188;56.070;12.698;2023-03-05T15:15:45;2.20;1.00
14210;DHT22;7188;56.070;12.698;2023-03-05T15:18:13;2.20;1.00
14210;DHT22;7188;56.070;12.698;2023-03-05T15:20:39;2.20;1.00
14210;DHT22;7188;56.070;12.698;2023-03-05T15:23:05;2.20;1.00
14210;DHT22;7188;56.070;12.698;2023-03-05T15:25:31;2.20;1.00
14210;DHT22;7188;56.070;12.698;2023-03-05T15:27:57;2.10;1.00
14210;DHT22;7188;56.070;12.698;2023-03-05T15:30:34;2.00;1.00
14210;DHT22;7188;56.070;12.698;2023-03-05T15:33:04;2.10;1.00
14210;DHT22;7188;56.070;12.698;2023-03-05T15:35:30;2.00;1.00
14210;DHT22;7188;56.070;12.698;2023-03-05T15:37:55;2.10;1.00
14210;DHT22;7188;56.070;12.698;2023-03-05T15:40:22;2.00;1.00
14210;DHT22;7188;56.070;12.698;2023-03-05T15:42:49;2.00;1.00
14210;DHT22;7188;56.070;12.698;2023-03-05T15:45:15;2.00;1.00
14210;DHT22;7188;56.070;12.698;2023-03-05T15:47:41;2.00;1.00
14210;DHT22;7188;56.070;12.698;2023-03-05T15:50:08;1.90;1.00
14210;DHT22;7188;56.070;12.698;2023-03-05T15:52:34;1.90;1.00
14210;DHT22;7188;56.070;12.698;2023-03-05T15:55:01;1.90;1.00
14210;DHT22;7188;56.070;12.698;2023-03-05T15:57:27;1.80;1.00
14210;DHT22;7188;56.070;12.698;2023-03-05T15:59:53;1.80;1.00
14210;DHT22;7188;56.070;12.698;2023-03-05T16:02:18;1.80;1.00
14210;DHT22;7188;56.070;12.698;2023-03-05T16:04:44;1.80;1.00
14210;DHT22;7188;56.070;12.698;2023-03-05T16:07:10;1.80;1.00
14210;DHT22;7188;56.070;12.698;2023-03-05T16:09:43;1.80;1.00
14210;DHT22;7188;56.070;12.698;2023-03-05T16:12:15;1.70;1.00
14210;DHT22;7188;56.070;12.698;2023-03-05T16:14:43;1.70;1.00
14210;DHT22;7188;56.070;12.698;2023-03-05T16:17:09;1.70;1.00
14210;DHT22;7188;56.070;12.698;2023-03-05T16:19:39;1.60;1.00
14210;DHT22;7188;56.070;12.698;2023-03-05T16:22:06;1.60;1.00
14210;DHT22;7188;56.070;12.698;2023-03-05T16:24:32;1.50;1.00
14210;DHT22;7188;56.070;12.698;2023-03-05T16:26:57;1.60;1.00
14210;DHT22;7188;56.070;12.698;2023-03-05T16:29:23;1.60;1.00
14210;DHT22;7188;56.070;12.698;2023-03-05T16:31:50;1.60;1.00
14210;DHT22;7188;56.070;12.698;2023-03-05T16:34:15;1.50;1.00
14210;DHT22;7188;56.070;12.698;2023-03-05T16:36:48;1.50;1.00
14210;DHT22;7188;56.070;12.698;2023-03-05T16:39:15;1.40;1.00
14210;DHT22;7188;56.070;12.698;2023-03-05T16:41:41;1.40;1.00
14210;DHT22;7188;56.070;12.698;2023-03-05T16:44:06;1.40;1.00
14210;DHT22;7188;56.070;12.698;2023-03-05T16:46:32;1.40;1.00
14210;DHT22;7188;56.070;12.698;2023-03-05T16:48:58;1.40;1.00
14210;DHT22;7188;56.070;12.698;2023-03-05T16:51:24;1.40;1.00
14210;DHT22;7188;56.070;12.698;2023-03-05T16:53:51;1.40;1.00
14210;DHT22;7188;56.070;12.698;2023-03-05T16:56:17;1.30;1.00
14210;DHT22;7188;56.070;12.698;2023-03-05T16:58:42;1.30;1.00
14210;DHT22;7188;56.070;12.698;2023-03-05T17:01:11;1.20;1.00
14210;DHT22;7188;56.070;12.698;2023-03-05T17:03:37;1.20;1.00
14210;DHT22;7188;56.070;12.698;2023-03-05T17:06:15;1.20;1.00
14210;DHT22;7188;56.070;12.698;2023-03-05T17:08:42;1.20;1.00
14210;DHT22;7188;56.070;12.698;2023-03-05T17:11:08;1.10;1.00
14210;DHT22;7188;56.070;12.698;2023-03-05T17:13:34;1.20;1.00
14210;DHT22;7188;56.070;12.698;2023-03-05T17:16:00;1.20;1.00
14210;DHT22;7188;56.070;12.698;2023-03-05T17:18:26;1.20;1.00
14210;DHT22;7188;56.070;12.698;2023-03-05T17:20:52;1.10;1.00
14210;DHT22;7188;56.070;12.698;2023-03-05T17:23:18;1.20;1.00
14210;DHT22;7188;56.070;12.698;2023-03-05T17:25:44;1.20;1.00
14210;DHT22;7188;56.070;12.698;2023-03-05T17:28:10;1.10;1.00
14210;DHT22;7188;56.070;12.698;2023-03-05T17:30:35;1.10;1.00
14210;DHT22;7188;56.070;12.698;2023-03-05T17:33:03;1.20;1.00
14210;DHT22;7188;56.070;12.698;2023-03-05T17:35:29;1.10;1.00
14210;DHT22;7188;56.070;12.698;2023-03-05T17:37:57;1.10;1.00